createdAt,value
2016-12-25T00:00:27.536Z,65.83
2016-12-25T00:01:08.035Z,66.5
2016-12-25T00:01:48.496Z,66.21
2016-12-25T00:02:28.997Z,65.92
2016-12-25T00:03:09.504Z,66.21
2016-12-25T00:03:49.987Z,65.92
2016-12-25T00:04:30.516Z,65.73
2016-12-25T00:05:11.003Z,66.31
2016-12-25T00:05:51.486Z,66.02
2016-12-25T00:06:31.985Z,66.21
2016-12-25T00:07:12.450Z,66.11
2016-12-25T00:07:52.978Z,66.4
2016-12-25T00:08:33.441Z,66.11
2016-12-25T00:09:13.985Z,66.31
2016-12-25T00:09:54.479Z,66.11
2016-12-25T00:10:34.941Z,65.83
2016-12-25T00:11:15.458Z,65.83
2016-12-25T00:11:55.978Z,66.02
2016-12-25T00:12:36.456Z,65.83
2016-12-25T00:13:16.906Z,66.02
2016-12-25T00:13:57.421Z,65.92
2016-12-25T00:14:37.917Z,66.02
2016-12-25T00:15:18.403Z,66.02
2016-12-25T00:15:58.917Z,66.02
2016-12-25T00:16:39.484Z,66.02
2016-12-25T00:17:20.009Z,66.02
2016-12-25T00:18:00.452Z,65.73
2016-12-25T00:18:40.945Z,66.11
2016-12-25T00:19:21.419Z,66.21
2016-12-25T00:20:01.907Z,65.64
2016-12-25T00:20:42.409Z,66.21
2016-12-25T00:21:22.872Z,66.5
2016-12-25T00:22:03.333Z,65.92
2016-12-25T00:22:43.845Z,66.21
2016-12-25T00:23:24.370Z,66.02
2016-12-25T00:24:04.879Z,66.21
2016-12-25T00:24:45.352Z,66.02
2016-12-25T00:25:25.845Z,65.92
2016-12-25T00:26:06.350Z,66.21
2016-12-25T00:26:46.793Z,65.83
2016-12-25T00:27:27.300Z,65.83
2016-12-25T00:28:07.764Z,66.02
2016-12-25T00:28:48.310Z,65.64
2016-12-25T00:29:28.739Z,65.64
2016-12-25T00:30:09.233Z,66.11
2016-12-25T00:30:49.780Z,66.02
2016-12-25T00:31:30.226Z,65.92
2016-12-25T00:32:10.720Z,66.02
2016-12-25T00:32:51.214Z,65.45
2016-12-25T00:33:31.684Z,66.21
2016-12-25T00:34:12.210Z,66.21
2016-12-25T00:34:52.633Z,65.26
2016-12-25T00:35:33.161Z,65.64
2016-12-25T00:36:13.666Z,66.02
2016-12-25T00:36:54.132Z,66.02
2016-12-25T00:37:34.602Z,66.31
2016-12-25T00:38:15.138Z,65.83
2016-12-25T00:38:55.633Z,65.73
2016-12-25T00:39:36.102Z,66.02
2016-12-25T00:40:16.628Z,66.02
2016-12-25T00:40:57.073Z,65.92
2016-12-25T00:41:37.588Z,65.83
2016-12-25T00:42:18.089Z,66.02
2016-12-25T00:42:58.588Z,65.83
2016-12-25T00:43:39.050Z,65.92
2016-12-25T00:44:19.542Z,66.21
2016-12-25T00:45:00.000Z,66.11
2016-12-25T00:45:40.635Z,65.83
2016-12-25T00:46:21.213Z,65.92
2016-12-25T00:47:01.648Z,66.21
2016-12-25T00:47:42.209Z,66.21
2016-12-25T00:48:22.680Z,66.02
2016-12-25T00:49:03.197Z,66.11
2016-12-25T00:49:43.676Z,65.64
2016-12-25T00:50:24.154Z,65.73
2016-12-25T00:51:04.657Z,66.02
2016-12-25T00:51:45.161Z,65.73
2016-12-25T00:52:25.660Z,65.45
2016-12-25T00:53:06.116Z,65.64
2016-12-25T00:53:46.573Z,65.83
2016-12-25T00:54:27.098Z,65.36
2016-12-25T00:55:07.747Z,65.73
2016-12-25T00:55:48.235Z,66.02
2016-12-25T00:56:28.715Z,66.02
2016-12-25T00:57:09.205Z,66.11
2016-12-25T00:57:49.696Z,66.21
2016-12-25T00:58:30.218Z,66.02
2016-12-25T00:59:10.690Z,65.64
2016-12-25T00:59:51.191Z,65.64
2016-12-25T01:00:31.753Z,65.83
2016-12-25T01:01:12.232Z,65.83
2016-12-25T01:01:52.757Z,65.83
2016-12-25T01:02:33.206Z,65.16
2016-12-25T01:03:13.738Z,64.87
2016-12-25T01:03:54.212Z,65.16
2016-12-25T01:04:34.735Z,65.26
2016-12-25T01:05:15.195Z,65.26
2016-12-25T01:05:55.677Z,65.07
2016-12-25T01:06:36.197Z,65.92
2016-12-25T01:07:16.624Z,65.64
2016-12-25T01:07:57.136Z,65.64
2016-12-25T01:08:37.693Z,65.92
2016-12-25T01:09:18.197Z,65.07
2016-12-25T01:09:58.660Z,64.97
2016-12-25T01:10:39.188Z,65.07
2016-12-25T01:11:19.628Z,65.55
2016-12-25T01:13:32.835Z,65.16
2016-12-25T01:14:13.336Z,64.5
2016-12-25T01:14:53.814Z,64.78
2016-12-25T01:15:34.315Z,64.97
2016-12-25T01:16:14.837Z,64.97
2016-12-25T01:16:55.339Z,64.69
2016-12-25T01:17:35.855Z,64.78
2016-12-25T01:18:16.344Z,64.87
2016-12-25T01:18:56.811Z,64.69
2016-12-25T01:19:37.301Z,65.16
2016-12-25T01:20:17.809Z,65.16
2016-12-25T01:20:58.305Z,64.69
2016-12-25T01:21:38.779Z,64.78
2016-12-25T01:22:19.272Z,64.97
2016-12-25T01:22:59.736Z,64.97
2016-12-25T01:23:40.239Z,64.59
2016-12-25T01:24:20.714Z,64.97
2016-12-25T01:25:01.219Z,65.16
2016-12-25T01:25:41.752Z,64.78
2016-12-25T01:26:22.204Z,64.97
2016-12-25T01:27:02.672Z,64.97
2016-12-25T01:27:43.175Z,64.78
2016-12-25T01:28:23.665Z,64.78
2016-12-25T01:29:04.152Z,65.26
2016-12-25T01:29:44.621Z,64.97
2016-12-25T01:30:25.136Z,64.69
2016-12-25T01:31:05.594Z,64.69
2016-12-25T01:31:46.082Z,65.16
2016-12-25T01:32:26.581Z,65.36
2016-12-25T01:33:07.038Z,65.73
2016-12-25T01:33:47.486Z,64.87
2016-12-25T01:34:27.952Z,65.64
2016-12-25T01:35:08.526Z,65.73
2016-12-25T01:35:48.938Z,65.83
2016-12-25T01:36:29.427Z,65.16
2016-12-25T01:37:09.958Z,65.64
2016-12-25T01:37:50.419Z,65.64
2016-12-25T01:38:30.961Z,65.73
2016-12-25T01:39:11.381Z,65.83
2016-12-25T01:39:51.866Z,65.64
2016-12-25T01:40:32.360Z,65.83
2016-12-25T01:41:12.835Z,65.73
2016-12-25T01:41:53.327Z,65.64
2016-12-25T01:42:33.773Z,65.36
2016-12-25T01:43:14.301Z,65.92
2016-12-25T01:43:54.788Z,65.26
2016-12-25T01:44:35.268Z,65.45
2016-12-25T01:45:15.727Z,66.11
2016-12-25T01:45:56.211Z,66.02
2016-12-25T01:46:36.767Z,65.73
2016-12-25T01:47:17.327Z,65.64
2016-12-25T01:47:57.792Z,65.55
2016-12-25T01:48:38.271Z,66.21
2016-12-25T01:49:18.802Z,65.83
2016-12-25T01:49:59.303Z,66.11
2016-12-25T01:50:39.777Z,65.83
2016-12-25T01:51:20.216Z,65.83
2016-12-25T01:52:00.691Z,66.59
2016-12-25T01:52:41.242Z,66.5
2016-12-25T01:53:21.776Z,66.21
2016-12-25T01:54:02.265Z,66.02
2016-12-25T01:54:42.721Z,66.78
2016-12-25T01:55:23.237Z,66.5
2016-12-25T01:56:03.716Z,67.16
2016-12-25T01:56:44.246Z,67.07
2016-12-25T01:57:24.766Z,66.97
2016-12-25T01:58:05.228Z,66.88
2016-12-25T01:58:45.704Z,66.78
2016-12-25T01:59:26.204Z,66.97
2016-12-25T02:00:06.691Z,66.88
2016-12-25T02:00:47.197Z,66.21
2016-12-25T02:01:27.747Z,66.88
2016-12-25T02:02:08.172Z,67.07
2016-12-25T02:02:48.702Z,67.45
2016-12-25T02:03:29.211Z,67.45
2016-12-25T02:04:09.668Z,67.07
2016-12-25T02:04:50.154Z,67.16
2016-12-25T02:05:30.667Z,67.35
2016-12-25T02:06:11.134Z,67.26
2016-12-25T02:06:51.601Z,67.35
2016-12-25T02:07:32.074Z,67.64
2016-12-25T02:08:12.604Z,67.55
2016-12-25T02:08:53.103Z,67.35
2016-12-25T02:09:33.554Z,67.35
2016-12-25T02:13:19.487Z,67.74
2016-12-25T02:13:59.999Z,67.55
2016-12-25T02:14:40.493Z,67.64
2016-12-25T02:15:21.015Z,67.55
2016-12-25T02:16:01.508Z,67.55
2016-12-25T02:16:42.020Z,67.45
2016-12-25T02:17:22.453Z,67.83
2016-12-25T02:18:02.989Z,67.83
2016-12-25T02:18:43.473Z,68.3
2016-12-25T02:19:24.002Z,67.93
2016-12-25T02:20:04.482Z,67.83
2016-12-25T02:20:44.962Z,67.74
2016-12-25T02:21:25.436Z,68.02
2016-12-25T02:22:05.972Z,67.83
2016-12-25T02:22:46.450Z,67.93
2016-12-25T02:23:26.897Z,67.35
2016-12-25T02:24:07.420Z,67.83
2016-12-25T02:24:47.922Z,68.4
2016-12-25T02:25:28.449Z,67.83
2016-12-25T02:26:08.903Z,68.18
2016-12-25T02:26:49.422Z,68.12
2016-12-25T02:27:29.893Z,68.21
2016-12-25T02:28:10.350Z,68.4
2016-12-25T02:28:50.897Z,68.4
2016-12-25T02:29:31.344Z,68.4
2016-12-25T02:30:11.854Z,67.83
2016-12-25T02:30:52.321Z,68.02
2016-12-25T02:31:32.795Z,68.59
2016-12-25T02:32:13.304Z,68.12
2016-12-25T02:32:53.748Z,68.12
2016-12-25T02:33:34.227Z,67.83
2016-12-25T02:34:14.721Z,68.21
2016-12-25T02:34:55.202Z,68.3
2016-12-25T02:35:35.726Z,67.93
2016-12-25T02:36:16.210Z,67.93
2016-12-25T02:36:56.710Z,67.74
2016-12-25T02:37:37.150Z,67.83
2016-12-25T02:38:17.649Z,67.83
2016-12-25T02:38:58.129Z,67.74
2016-12-25T02:39:38.654Z,67.74
2016-12-25T02:40:19.186Z,67.74
2016-12-25T02:40:59.659Z,68.02
2016-12-25T02:41:40.128Z,67.64
2016-12-25T02:42:20.620Z,67.74
2016-12-25T02:43:01.092Z,67.55
2016-12-25T02:43:41.575Z,67.45
2016-12-25T02:44:22.031Z,67.35
2016-12-25T02:45:02.529Z,67.64
2016-12-25T02:45:43.015Z,67.83
2016-12-25T02:46:23.523Z,67.35
2016-12-25T02:47:04.018Z,67.64
2016-12-25T02:47:44.532Z,67.55
2016-12-25T02:48:24.979Z,67.45
2016-12-25T02:49:05.516Z,67.64
2016-12-25T02:49:45.961Z,67.93
2016-12-25T02:50:26.444Z,67.35
2016-12-25T02:51:06.958Z,67.35
2016-12-25T02:51:47.401Z,67.64
2016-12-25T02:52:27.864Z,67.35
2016-12-25T02:53:08.336Z,67.35
2016-12-25T02:53:48.859Z,67.35
2016-12-25T02:54:29.377Z,67.74
2016-12-25T02:55:09.860Z,67.26
2016-12-25T02:55:50.353Z,67.16
2016-12-25T02:56:30.834Z,67.55
2016-12-25T02:57:11.333Z,67.45
2016-12-25T02:57:51.779Z,67.55
2016-12-25T02:58:32.259Z,67.83
2016-12-25T02:59:12.772Z,67.26
2016-12-25T02:59:53.286Z,67.55
2016-12-25T03:00:33.779Z,67.35
2016-12-25T03:01:14.219Z,67.83
2016-12-25T03:01:54.770Z,67.45
2016-12-25T03:02:35.236Z,67.55
2016-12-25T03:03:15.689Z,67.45
2016-12-25T03:03:56.232Z,67.55
2016-12-25T03:04:36.722Z,67.35
2016-12-25T03:05:17.221Z,67.45
2016-12-25T03:05:57.671Z,67.26
2016-12-25T03:06:38.155Z,67.45
2016-12-25T03:07:18.624Z,67.45
2016-12-25T03:07:59.144Z,67.45
2016-12-25T03:11:45.045Z,67.74
2016-12-25T03:12:25.544Z,67.51
2016-12-25T03:13:06.052Z,67.83
2016-12-25T03:13:46.530Z,67.93
2016-12-25T03:14:27.034Z,67.7
2016-12-25T03:15:07.503Z,67.89
2016-12-25T03:15:47.959Z,68.08
2016-12-25T03:16:28.465Z,68.08
2016-12-25T03:17:08.953Z,67.74
2016-12-25T03:17:49.484Z,67.64
2016-12-25T03:18:29.936Z,67.51
2016-12-25T03:19:10.502Z,67.83
2016-12-25T03:19:50.957Z,67.51
2016-12-25T03:20:31.450Z,67.89
2016-12-25T03:21:11.974Z,68.02
2016-12-25T03:21:52.417Z,68.46
2016-12-25T03:22:32.935Z,68.08
2016-12-25T03:23:13.397Z,68.27
2016-12-25T03:23:53.890Z,68.37
2016-12-25T03:24:34.375Z,68.3
2016-12-25T03:25:14.839Z,67.8
2016-12-25T03:25:55.338Z,67.99
2016-12-25T03:26:35.945Z,67.7
2016-12-25T03:27:16.414Z,68.18
2016-12-25T03:27:56.889Z,67.74
2016-12-25T03:28:37.421Z,67.93
2016-12-25T03:29:17.846Z,67.74
2016-12-25T03:29:58.337Z,67.89
2016-12-25T03:30:38.849Z,68.27
2016-12-25T03:31:19.319Z,67.83
2016-12-25T03:31:59.841Z,67.74
2016-12-25T03:32:40.307Z,67.55
2016-12-25T03:33:20.854Z,67.74
2016-12-25T03:34:01.356Z,67.74
2016-12-25T03:34:41.840Z,67.45
2016-12-25T03:35:22.297Z,67.83
2016-12-25T03:36:02.774Z,67.45
2016-12-25T03:36:43.329Z,67.45
2016-12-25T03:37:23.772Z,67.74
2016-12-25T03:38:04.216Z,67.64
2016-12-25T03:38:44.732Z,67.45
2016-12-25T03:39:25.241Z,67.26
2016-12-25T03:40:05.695Z,67.45
2016-12-25T03:40:46.192Z,67.74
2016-12-25T03:41:26.662Z,67.55
2016-12-25T03:42:07.195Z,67.61
2016-12-25T03:42:47.678Z,67.7
2016-12-25T03:43:28.152Z,67.32
2016-12-25T03:44:08.688Z,67.45
2016-12-25T03:44:49.149Z,67.45
2016-12-25T03:45:29.582Z,67.55
2016-12-25T03:46:10.099Z,67.8
2016-12-25T03:46:50.590Z,67.93
2016-12-25T03:47:31.123Z,67.83
2016-12-25T03:48:11.661Z,67.51
2016-12-25T03:48:52.152Z,67.64
2016-12-25T03:49:32.606Z,67.64
2016-12-25T03:50:13.092Z,68.02
2016-12-25T03:50:53.560Z,67.55
2016-12-25T03:51:34.112Z,67.55
2016-12-25T03:52:14.601Z,67.51
2016-12-25T03:52:55.109Z,67.61
2016-12-25T03:53:35.567Z,67.7
2016-12-25T03:54:16.048Z,67.51
2016-12-25T03:54:56.586Z,67.64
2016-12-25T03:55:37.083Z,67.7
2016-12-25T03:56:17.592Z,67.7
2016-12-25T03:56:58.047Z,67.99
2016-12-25T03:57:38.560Z,68.08
2016-12-25T03:58:19.034Z,68.65
2016-12-25T03:58:59.545Z,67.51
2016-12-25T03:59:40.040Z,67.74
2016-12-25T04:00:20.486Z,67.8
2016-12-25T04:01:01.000Z,68.08
2016-12-25T04:01:41.479Z,68.18
2016-12-25T04:02:22.033Z,68.18
2016-12-25T04:03:02.514Z,67.89
2016-12-25T04:03:43.046Z,67.8
2016-12-25T04:04:23.561Z,67.74
2016-12-25T04:05:04.000Z,68.3
2016-12-25T04:05:44.478Z,67.8
2016-12-25T04:06:24.967Z,67.89
2016-12-25T04:08:38.165Z,68.12
2016-12-25T04:09:18.672Z,67.64
2016-12-25T04:09:59.163Z,67.64
2016-12-25T04:10:39.652Z,67.74
2016-12-25T04:11:20.140Z,67.74
2016-12-25T04:12:00.653Z,67.83
2016-12-25T04:12:41.159Z,67.74
2016-12-25T04:13:21.649Z,67.74
2016-12-25T04:14:02.208Z,68.21
2016-12-25T04:14:42.687Z,67.64
2016-12-25T04:15:23.123Z,67.32
2016-12-25T04:16:03.649Z,67.8
2016-12-25T04:16:44.174Z,67.74
2016-12-25T04:17:24.620Z,67.74
2016-12-25T04:18:05.148Z,67.83
2016-12-25T04:18:45.585Z,67.74
2016-12-25T04:19:26.134Z,68.02
2016-12-25T04:20:06.593Z,67.74
2016-12-25T04:20:47.102Z,67.51
2016-12-25T04:21:27.546Z,67.74
2016-12-25T04:22:08.072Z,67.74
2016-12-25T04:22:48.590Z,67.93
2016-12-25T04:23:29.034Z,68.69
2016-12-25T04:24:09.491Z,67.74
2016-12-25T04:24:50.004Z,67.74
2016-12-25T04:25:30.440Z,67.51
2016-12-25T04:26:10.974Z,67.7
2016-12-25T04:26:51.453Z,68.56
2016-12-25T04:27:31.962Z,68.08
2016-12-25T04:28:12.551Z,67.93
2016-12-25T04:28:52.972Z,67.83
2016-12-25T04:29:33.686Z,67.64
2016-12-25T04:30:14.163Z,67.93
2016-12-25T04:30:54.633Z,67.55
2016-12-25T04:31:35.135Z,67.74
2016-12-25T04:32:15.628Z,67.64
2016-12-25T04:32:56.113Z,67.35
2016-12-25T04:33:36.627Z,67.45
2016-12-25T04:34:17.123Z,67.45
2016-12-25T04:34:57.573Z,67.55
2016-12-25T04:35:38.075Z,67.55
2016-12-25T04:36:18.607Z,67.35
2016-12-25T04:36:59.027Z,67.55
2016-12-25T04:37:39.550Z,67.35
2016-12-25T04:38:20.003Z,67.35
2016-12-25T04:39:00.500Z,67.45
2016-12-25T04:39:40.990Z,67.83
2016-12-25T04:40:21.444Z,67.55
2016-12-25T04:41:01.920Z,67.55
2016-12-25T04:41:42.425Z,67.45
2016-12-25T04:42:22.920Z,67.45
2016-12-25T04:43:03.405Z,67.74
2016-12-25T04:43:43.918Z,67.35
2016-12-25T04:44:24.372Z,67.26
2016-12-25T04:45:04.890Z,67.74
2016-12-25T04:45:45.378Z,67.26
2016-12-25T04:46:25.915Z,67.55
2016-12-25T04:47:06.357Z,67.55
2016-12-25T04:47:46.843Z,67.45
2016-12-25T04:48:27.327Z,67.45
2016-12-25T04:49:07.785Z,67.07
2016-12-25T04:49:48.308Z,67.55
2016-12-25T04:50:28.781Z,67.35
2016-12-25T04:51:09.349Z,67.45
2016-12-25T04:51:49.770Z,67.45
2016-12-25T04:52:30.284Z,67.83
2016-12-25T04:53:10.801Z,67.93
2016-12-25T04:53:51.271Z,67.93
2016-12-25T04:54:31.798Z,68.12
2016-12-25T04:55:12.271Z,67.89
2016-12-25T04:55:52.768Z,67.83
2016-12-25T04:56:33.300Z,67.8
2016-12-25T04:57:13.852Z,68.46
2016-12-25T04:57:54.315Z,68.75
2016-12-25T04:58:34.848Z,68.84
2016-12-25T04:59:15.306Z,68.75
2016-12-25T04:59:55.828Z,68.56
2016-12-25T05:00:36.287Z,68.46
2016-12-25T05:01:16.785Z,67.93
2016-12-25T05:01:57.278Z,67.89
2016-12-25T05:02:37.730Z,67.93
2016-12-25T05:03:18.243Z,68.12
2016-12-25T05:03:58.759Z,67.7
2016-12-25T05:04:39.236Z,68.37
2016-12-25T05:06:52.433Z,68.56
2016-12-25T05:07:32.935Z,68.84
2016-12-25T05:08:13.417Z,68.65
2016-12-25T05:08:54.014Z,68.84
2016-12-25T05:09:34.524Z,68.27
2016-12-25T05:10:15.015Z,68.21
2016-12-25T05:10:55.588Z,68.3
2016-12-25T05:11:36.028Z,68.21
2016-12-25T05:12:16.567Z,68.27
2016-12-25T05:12:57.048Z,68.3
2016-12-25T05:13:37.576Z,68.37
2016-12-25T05:14:18.052Z,68.3
2016-12-25T05:14:58.543Z,68.21
2016-12-25T05:15:39.033Z,68.4
2016-12-25T05:16:19.531Z,68.4
2016-12-25T05:16:59.972Z,68.3
2016-12-25T05:17:40.467Z,68.4
2016-12-25T05:18:20.942Z,68.5
2016-12-25T05:19:01.483Z,68.3
2016-12-25T05:19:41.949Z,68.21
2016-12-25T05:20:22.440Z,68.3
2016-12-25T05:21:02.894Z,69.07
2016-12-25T05:21:43.433Z,68.88
2016-12-25T05:22:23.877Z,68.69
2016-12-25T05:23:04.438Z,68.88
2016-12-25T05:23:44.912Z,68.75
2016-12-25T05:24:25.397Z,68.69
2016-12-25T05:25:05.912Z,68.98
2016-12-25T05:25:46.398Z,68.78
2016-12-25T05:26:26.925Z,68.59
2016-12-25T05:27:07.412Z,68.59
2016-12-25T05:27:47.885Z,68.59
2016-12-25T05:28:28.433Z,68.84
2016-12-25T05:29:08.922Z,68.98
2016-12-25T05:29:49.375Z,68.78
2016-12-25T05:30:29.916Z,68.78
2016-12-25T05:31:10.357Z,69.35
2016-12-25T05:31:50.854Z,69.07
2016-12-25T05:32:31.406Z,68.98
2016-12-25T05:33:11.860Z,69.07
2016-12-25T05:33:52.376Z,68.88
2016-12-25T05:34:32.989Z,69.17
2016-12-25T05:35:13.468Z,68.78
2016-12-25T05:35:53.958Z,68.98
2016-12-25T05:36:34.410Z,68.88
2016-12-25T05:37:14.939Z,69.04
2016-12-25T05:37:55.375Z,69.32
2016-12-25T05:38:35.826Z,69.13
2016-12-25T05:39:16.325Z,69.35
2016-12-25T05:39:56.804Z,68.75
2016-12-25T05:40:37.276Z,68.98
2016-12-25T05:41:17.786Z,68.98
2016-12-25T05:41:58.260Z,69.07
2016-12-25T05:42:38.788Z,68.69
2016-12-25T05:43:19.245Z,68.84
2016-12-25T05:43:59.721Z,69.04
2016-12-25T05:44:40.165Z,69.32
2016-12-25T05:45:20.702Z,69.54
2016-12-25T05:46:01.175Z,69.07
2016-12-25T05:46:41.634Z,68.69
2016-12-25T05:47:22.166Z,68.88
2016-12-25T05:48:02.638Z,69.6
2016-12-25T05:48:43.222Z,69.35
2016-12-25T05:49:23.654Z,69.07
2016-12-25T05:50:04.100Z,68.88
2016-12-25T05:50:44.652Z,68.88
2016-12-25T05:51:25.169Z,69.26
2016-12-25T05:52:05.624Z,68.98
2016-12-25T05:52:46.094Z,69.07
2016-12-25T05:53:26.623Z,68.78
2016-12-25T05:54:07.105Z,68.98
2016-12-25T05:54:47.619Z,69.04
2016-12-25T05:55:28.143Z,69.32
2016-12-25T05:56:08.650Z,69.6
2016-12-25T05:56:49.103Z,69.45
2016-12-25T05:57:29.624Z,69.45
2016-12-25T05:58:10.091Z,69.42
2016-12-25T05:58:50.669Z,69.64
2016-12-25T05:59:31.140Z,68.98
2016-12-25T06:00:11.648Z,69.35
2016-12-25T06:00:52.102Z,69.23
2016-12-25T06:01:32.632Z,69.17
2016-12-25T06:02:13.133Z,69.17
2016-12-25T06:02:53.599Z,69.26
2016-12-25T06:05:06.819Z,69.35
2016-12-25T06:05:47.297Z,69.45
2016-12-25T06:06:27.815Z,69.54
2016-12-25T06:07:08.321Z,69.54
2016-12-25T06:07:48.771Z,69.26
2016-12-25T06:08:29.318Z,68.98
2016-12-25T06:09:09.766Z,69.07
2016-12-25T06:09:50.305Z,69.45
2016-12-25T06:10:30.803Z,69.51
2016-12-25T06:11:11.264Z,69.35
2016-12-25T06:11:51.729Z,69.17
2016-12-25T06:12:32.240Z,69.64
2016-12-25T06:13:12.740Z,69.07
2016-12-25T06:13:53.187Z,68.98
2016-12-25T06:14:33.687Z,68.88
2016-12-25T06:15:14.173Z,68.88
2016-12-25T06:15:54.662Z,69.26
2016-12-25T06:16:35.199Z,68.78
2016-12-25T06:17:15.642Z,69.07
2016-12-25T06:17:56.180Z,68.98
2016-12-25T06:18:36.640Z,69.07
2016-12-25T06:19:17.194Z,69.07
2016-12-25T06:19:57.722Z,68.98
2016-12-25T06:20:38.240Z,69.07
2016-12-25T06:21:18.686Z,68.98
2016-12-25T06:21:59.174Z,69.17
2016-12-25T06:22:39.647Z,68.88
2016-12-25T06:23:20.094Z,68.78
2016-12-25T06:24:00.608Z,68.69
2016-12-25T06:24:41.144Z,68.78
2016-12-25T06:25:21.621Z,68.69
2016-12-25T06:26:02.096Z,68.98
2016-12-25T06:26:42.580Z,68.84
2016-12-25T06:27:23.145Z,69.13
2016-12-25T06:28:03.604Z,69.26
2016-12-25T06:28:44.062Z,68.98
2016-12-25T06:29:24.538Z,68.69
2016-12-25T06:30:05.034Z,68.78
2016-12-25T06:30:45.612Z,68.3
2016-12-25T06:31:26.091Z,68.02
2016-12-25T06:32:06.614Z,67.93
2016-12-25T06:32:47.150Z,68.4
2016-12-25T06:33:27.605Z,68.21
2016-12-25T06:34:08.213Z,68.21
2016-12-25T06:34:48.711Z,68.21
2016-12-25T06:35:29.235Z,68.3
2016-12-25T06:36:09.685Z,68.12
2016-12-25T06:36:50.226Z,68.21
2016-12-25T06:37:30.685Z,68.5
2016-12-25T06:38:11.187Z,68.02
2016-12-25T06:38:51.627Z,68.4
2016-12-25T06:39:32.134Z,68.02
2016-12-25T06:40:12.636Z,68.5
2016-12-25T06:40:53.059Z,67.64
2016-12-25T06:41:33.587Z,67.93
2016-12-25T06:42:14.071Z,68.02
2016-12-25T06:42:54.604Z,68.12
2016-12-25T06:43:35.068Z,67.74
2016-12-25T06:44:15.585Z,67.74
2016-12-25T06:44:56.048Z,68.21
2016-12-25T06:45:36.519Z,67.74
2016-12-25T06:46:17.044Z,67.83
2016-12-25T06:46:57.522Z,67.74
2016-12-25T06:47:37.985Z,67.74
2016-12-25T06:48:18.485Z,67.74
2016-12-25T06:48:58.989Z,67.26
2016-12-25T06:49:39.496Z,67.45
2016-12-25T06:50:19.951Z,67.45
2016-12-25T06:51:00.467Z,67.35
2016-12-25T06:51:40.955Z,67.45
2016-12-25T06:52:21.456Z,67.26
2016-12-25T06:53:01.966Z,67.55
2016-12-25T06:53:42.471Z,67.45
2016-12-25T06:54:23.040Z,67.55
2016-12-25T06:55:03.476Z,67.45
2016-12-25T06:55:43.964Z,67.26
2016-12-25T06:56:24.410Z,67.26
2016-12-25T06:57:04.901Z,67.35
2016-12-25T06:57:45.395Z,67.55
2016-12-25T06:58:25.843Z,67.55
2016-12-25T06:59:06.323Z,67.55
2016-12-25T06:59:46.826Z,67.64
2016-12-25T07:00:27.335Z,67.45
2016-12-25T07:01:07.850Z,67.35
2016-12-25T07:01:48.359Z,67.26
2016-12-25T07:04:01.590Z,67.45
2016-12-25T07:04:42.086Z,67.16
2016-12-25T07:05:22.565Z,67.07
2016-12-25T07:06:03.079Z,67.26
2016-12-25T07:06:43.588Z,67.35
2016-12-25T07:07:24.065Z,67.35
2016-12-25T07:08:04.594Z,67.35
2016-12-25T07:08:45.082Z,66.97
2016-12-25T07:09:25.595Z,66.97
2016-12-25T07:10:06.091Z,66.78
2016-12-25T07:10:46.591Z,66.5
2016-12-25T07:11:27.111Z,66.31
2016-12-25T07:12:07.559Z,66.4
2016-12-25T07:12:48.083Z,66.4
2016-12-25T07:13:28.617Z,66.02
2016-12-25T07:14:09.082Z,66.21
2016-12-25T07:14:49.558Z,66.4
2016-12-25T07:15:30.086Z,65.92
2016-12-25T07:16:10.590Z,66.02
2016-12-25T07:16:51.039Z,65.92
2016-12-25T07:17:31.524Z,65.64
2016-12-25T07:18:12.020Z,66.02
2016-12-25T07:18:52.497Z,66.21
2016-12-25T07:19:32.996Z,66.11
2016-12-25T07:20:13.450Z,65.83
2016-12-25T07:20:53.906Z,66.21
2016-12-25T07:21:34.434Z,66.02
2016-12-25T07:22:14.902Z,66.21
2016-12-25T07:22:55.416Z,65.83
2016-12-25T07:23:35.909Z,65.83
2016-12-25T07:24:16.417Z,65.64
2016-12-25T07:24:56.906Z,65.36
2016-12-25T07:25:37.392Z,65.55
2016-12-25T07:26:17.885Z,65.55
2016-12-25T07:26:58.405Z,65.83
2016-12-25T07:27:38.867Z,65.07
2016-12-25T07:28:19.385Z,65.26
2016-12-25T07:28:59.874Z,64.69
2016-12-25T07:29:40.353Z,64.87
2016-12-25T07:30:20.855Z,65.07
2016-12-25T07:31:01.281Z,64.59
2016-12-25T07:31:41.787Z,64.59
2016-12-25T07:32:22.264Z,64.97
2016-12-25T07:33:02.794Z,64.87
2016-12-25T07:33:43.296Z,65.16
2016-12-25T07:34:23.799Z,64.91
2016-12-25T07:35:04.291Z,64.97
2016-12-25T07:35:44.760Z,65.55
2016-12-25T07:36:25.364Z,65.64
2016-12-25T07:37:05.845Z,65.73
2016-12-25T07:37:46.357Z,66.11
2016-12-25T07:38:26.813Z,66.02
2016-12-25T07:39:07.317Z,65.73
2016-12-25T07:39:47.827Z,65.64
2016-12-25T07:40:28.326Z,65.73
2016-12-25T07:41:08.843Z,65.83
2016-12-25T07:41:49.291Z,65.36
2016-12-25T07:42:29.798Z,65.55
2016-12-25T07:43:10.303Z,65.26
2016-12-25T07:43:50.763Z,65.55
2016-12-25T07:44:31.303Z,65
2016-12-25T07:45:11.769Z,64.91
2016-12-25T07:45:52.250Z,64.69
2016-12-25T07:46:32.697Z,64.81
2016-12-25T07:47:13.186Z,65.16
2016-12-25T07:47:53.639Z,65.36
2016-12-25T07:48:34.212Z,65.73
2016-12-25T07:49:14.699Z,65.73
2016-12-25T07:49:55.132Z,65.86
2016-12-25T07:50:35.631Z,65.2
2016-12-25T07:51:16.182Z,64.81
2016-12-25T07:51:56.625Z,65.2
2016-12-25T07:52:37.084Z,64.87
2016-12-25T07:53:17.577Z,65.26
2016-12-25T07:53:58.077Z,65.36
2016-12-25T07:54:38.527Z,65.73
2016-12-25T07:55:19.020Z,65.83
2016-12-25T07:55:59.562Z,66.02
2016-12-25T07:56:40.033Z,65.55
2016-12-25T07:57:20.562Z,65.73
2016-12-25T07:58:01.020Z,65.73
2016-12-25T07:58:41.498Z,65.36
2016-12-25T07:59:21.972Z,65.64
2016-12-25T08:01:35.244Z,65.77
2016-12-25T08:02:15.737Z,65
2016-12-25T08:02:56.230Z,65.26
2016-12-25T08:03:36.737Z,65.92
2016-12-25T08:04:17.222Z,65.64
2016-12-25T08:04:57.684Z,65.2
2016-12-25T08:05:38.207Z,64.97
2016-12-25T08:06:18.693Z,65.1
2016-12-25T08:06:59.151Z,65.48
2016-12-25T08:07:39.675Z,65.55
2016-12-25T08:08:20.313Z,65.73
2016-12-25T08:09:00.784Z,65.29
2016-12-25T08:09:41.335Z,65.77
2016-12-25T08:10:21.794Z,65.86
2016-12-25T08:11:02.269Z,65.29
2016-12-25T08:11:42.770Z,65.1
2016-12-25T08:12:23.225Z,65.2
2016-12-25T08:13:03.687Z,65.45
2016-12-25T08:13:44.193Z,65.83
2016-12-25T08:14:24.700Z,66.02
2016-12-25T08:15:05.185Z,65.73
2016-12-25T08:15:45.650Z,66.02
2016-12-25T08:16:26.120Z,65.48
2016-12-25T08:17:06.616Z,65.39
2016-12-25T08:17:47.139Z,65.77
2016-12-25T08:18:27.564Z,65.58
2016-12-25T08:19:08.029Z,65.29
2016-12-25T08:19:48.478Z,65.2
2016-12-25T08:20:28.965Z,65.77
2016-12-25T08:21:09.485Z,65.64
2016-12-25T08:21:49.981Z,65.67
2016-12-25T08:22:30.482Z,66.05
2016-12-25T08:23:10.978Z,65.29
2016-12-25T08:23:51.446Z,65.58
2016-12-25T08:24:31.955Z,65.2
2016-12-25T08:25:12.420Z,64.72
2016-12-25T08:25:52.918Z,65.86
2016-12-25T08:26:33.401Z,65.67
2016-12-25T08:27:13.864Z,65.64
2016-12-25T08:27:54.353Z,65.16
2016-12-25T08:28:34.844Z,65.96
2016-12-25T08:29:15.379Z,65
2016-12-25T08:29:55.904Z,65.39
2016-12-25T08:30:36.355Z,65
2016-12-25T08:31:16.909Z,65.29
2016-12-25T08:31:57.392Z,65.2
2016-12-25T08:32:37.868Z,64.72
2016-12-25T08:33:18.364Z,64.91
2016-12-25T08:33:58.849Z,64.81
2016-12-25T08:34:39.304Z,65.1
2016-12-25T08:35:19.795Z,64.91
2016-12-25T08:36:00.251Z,64.81
2016-12-25T08:36:40.769Z,64.91
2016-12-25T08:37:21.280Z,65
2016-12-25T08:38:01.781Z,64.81
2016-12-25T08:38:42.243Z,64.91
2016-12-25T08:39:22.752Z,65.1
2016-12-25T08:40:03.223Z,64.91
2016-12-25T08:40:43.781Z,65.29
2016-12-25T08:41:24.241Z,64.81
2016-12-25T08:42:04.749Z,64.81
2016-12-25T08:42:45.220Z,65.2
2016-12-25T08:43:25.701Z,64.72
2016-12-25T08:44:06.202Z,65.1
2016-12-25T08:44:46.684Z,65.2
2016-12-25T08:45:27.183Z,64.81
2016-12-25T08:46:07.618Z,65.2
2016-12-25T08:46:48.095Z,65
2016-12-25T08:47:28.606Z,65.1
2016-12-25T08:48:09.133Z,64.91
2016-12-25T08:48:49.636Z,65.29
2016-12-25T08:49:30.100Z,65.1
2016-12-25T08:50:10.594Z,65.2
2016-12-25T08:50:51.167Z,64.53
2016-12-25T08:51:31.565Z,64.43
2016-12-25T08:52:12.067Z,64.53
2016-12-25T08:52:52.584Z,64.62
2016-12-25T08:53:33.070Z,64.81
2016-12-25T08:54:13.571Z,64.91
2016-12-25T08:54:54.036Z,65.1
2016-12-25T08:55:34.534Z,64.53
2016-12-25T08:56:15.038Z,64.53
2016-12-25T08:56:55.463Z,64.53
2016-12-25T08:57:36.022Z,64.62
2016-12-25T08:59:49.302Z,64.34
2016-12-25T09:00:29.806Z,64.24